createdAt,value
2023-02-21T00:00:44.854Z,14.10
2023-02-21T00:01:44.864Z,19.50
2023-02-21T00:02:44.836Z,15.20
2023-02-21T00:03:44.826Z,15.50
2023-02-21T00:04:44.798Z,14.10
2023-02-21T00:05:44.925Z,16.30
2023-02-21T00:06:44.772Z,17.80
2023-02-21T00:07:44.778Z,15.50
2023-02-21T00:08:44.775Z,14.00
2023-02-21T00:09:44.749Z,15.20
2023-02-21T00:10:44.763Z,13.80
2023-02-21T00:11:44.731Z,14.30
2023-02-21T00:12:44.708Z,14.30
2023-02-21T00:13:44.718Z,13.90
2023-02-21T00:14:44.703Z,16.70
2023-02-21T00:15:44.737Z,13.60
2023-02-21T00:16:44.694Z,16.30
2023-02-21T00:17:44.666Z,18.00
2023-02-21T00:18:44.659Z,15.80
2023-02-21T00:19:44.652Z,14.00
2023-02-21T00:20:44.687Z,14.30
2023-02-21T00:21:44.632Z,21.20
2023-02-21T00:22:44.619Z,22.60
2023-02-21T00:23:44.616Z,16.40
2023-02-21T00:24:44.592Z,19.40
2023-02-21T00:25:44.602Z,14.30
2023-02-21T00:26:44.564Z,19.50
2023-02-21T00:27:44.573Z,14.80
2023-02-21T00:28:44.542Z,16.20
2023-02-21T00:29:44.556Z,17.90
2023-02-21T00:30:44.611Z,13.90
2023-02-21T00:31:44.546Z,15.00
2023-02-21T00:32:44.613Z,19.70
2023-02-21T00:33:44.495Z,19.30
2023-02-21T00:34:44.655Z,20.60
2023-02-21T00:35:44.482Z,15.70
2023-02-21T00:36:44.465Z,12.20
2023-02-21T00:37:44.476Z,17.60
2023-02-21T00:38:44.453Z,20.60
2023-02-21T00:39:44.446Z,17.30
2023-02-21T00:40:44.446Z,15.10
2023-02-21T00:41:44.413Z,23.10
2023-02-21T00:42:44.434Z,13.10
2023-02-21T00:43:44.451Z,20.50
2023-02-21T00:44:44.398Z,14.00
2023-02-21T00:45:44.420Z,19.40
2023-02-21T00:46:44.359Z,16.40
2023-02-21T00:47:44.362Z,19.60
2023-02-21T00:48:44.345Z,18.20
2023-02-21T00:49:44.347Z,17.60
2023-02-21T00:50:44.306Z,16.00
2023-02-21T00:51:44.337Z,15.20
2023-02-21T00:52:44.317Z,19.30
2023-02-21T00:53:44.295Z,15.20
2023-02-21T00:54:44.282Z,15.00
2023-02-21T00:55:44.274Z,18.60
2023-02-21T00:56:44.267Z,22.10
2023-02-21T00:57:44.258Z,19.60
2023-02-21T00:58:44.224Z,15.40
2023-02-21T00:59:44.239Z,14.50
2023-02-21T01:00:44.228Z,19.40
2023-02-21T01:01:44.354Z,17.80
2023-02-21T01:02:44.186Z,20.60
2023-02-21T01:03:44.202Z,19.70
2023-02-21T01:04:44.173Z,19.20
2023-02-21T01:05:44.184Z,16.70
2023-02-21T01:06:44.151Z,17.30
2023-02-21T01:07:44.155Z,16.40
2023-02-21T01:08:44.138Z,15.00
2023-02-21T01:09:44.115Z,15.60
2023-02-21T01:10:44.107Z,16.70
2023-02-21T01:11:44.123Z,16.20
2023-02-21T01:12:44.088Z,16.90
2023-02-21T01:13:44.093Z,20.90
2023-02-21T01:14:44.124Z,22.00
2023-02-21T01:15:44.100Z,19.50
2023-02-21T01:16:44.065Z,15.50
2023-02-21T01:17:44.055Z,17.80
2023-02-21T01:18:44.032Z,23.40
2023-02-21T01:19:44.029Z,17.00
2023-02-21T01:20:44.010Z,18.30
2023-02-21T01:21:44.016Z,13.80
2023-02-21T01:22:43.989Z,17.50
2023-02-21T01:23:44.001Z,14.70
2023-02-21T01:24:43.970Z,12.90
2023-02-21T01:25:43.965Z,17.50
2023-02-21T01:26:43.948Z,18.40
2023-02-21T01:27:43.951Z,24.30
2023-02-21T01:28:43.939Z,16.90
2023-02-21T01:29:43.922Z,14.60
2023-02-21T01:30:44.045Z,21.00
2023-02-21T01:31:43.902Z,21.80
2023-02-21T01:32:43.888Z,26.90
2023-02-21T01:33:43.899Z,23.00
2023-02-21T01:34:43.854Z,16.80
2023-02-21T01:35:43.874Z,19.40
2023-02-21T01:36:43.866Z,16.10
2023-02-21T01:37:43.836Z,14.90
2023-02-21T01:38:43.863Z,15.30
2023-02-21T01:39:43.818Z,11.30
2023-02-21T01:40:43.813Z,20.20
2023-02-21T01:41:43.782Z,18.60
2023-02-21T01:42:46.347Z,20.10
2023-02-21T01:43:43.784Z,16.10
2023-02-21T01:44:43.761Z,19.00
2023-02-21T01:45:43.750Z,18.90
2023-02-21T01:46:43.741Z,13.90
2023-02-21T01:47:43.768Z,19.00
2023-02-21T01:48:43.736Z,15.50
2023-02-21T01:49:43.704Z,15.00
2023-02-21T01:50:43.724Z,15.00
2023-02-21T01:51:43.696Z,23.20
2023-02-21T01:52:43.682Z,15.70
2023-02-21T01:53:43.672Z,15.00
2023-02-21T01:54:43.660Z,12.70
2023-02-21T01:55:43.656Z,18.10
2023-02-21T01:56:43.637Z,19.20
2023-02-21T01:57:43.620Z,15.80
2023-02-21T01:58:43.610Z,16.90
2023-02-21T01:59:43.625Z,21.20
2023-02-21T02:00:43.602Z,16.50
2023-02-21T02:01:43.673Z,18.00
2023-02-21T02:02:43.562Z,21.70
2023-02-21T02:03:43.560Z,17.10
2023-02-21T02:04:43.614Z,19.00
2023-02-21T02:05:43.557Z,16.70
2023-02-21T02:06:43.522Z,15.50
2023-02-21T02:07:43.540Z,15.80
2023-02-21T02:08:43.505Z,18.30
2023-02-21T02:09:51.023Z,14.70
2023-02-21T02:10:43.501Z,18.00
2023-02-21T02:11:43.502Z,18.90
2023-02-21T02:12:43.470Z,15.90
2023-02-21T02:13:43.455Z,16.50
2023-02-21T02:14:43.440Z,16.40
2023-02-21T02:15:43.499Z,17.80
2023-02-21T02:16:43.441Z,16.60
2023-02-21T02:17:43.429Z,21.80
2023-02-21T02:18:43.436Z,13.30
2023-02-21T02:19:43.462Z,17.60
2023-02-21T02:20:43.374Z,20.20
2023-02-21T02:21:43.390Z,16.00
2023-02-21T02:22:43.358Z,18.50
2023-02-21T02:23:43.348Z,20.60
2023-02-21T02:24:43.330Z,13.90
2023-02-21T02:25:43.343Z,21.30
2023-02-21T02:26:43.411Z,19.70
2023-02-21T02:27:43.311Z,18.00
2023-02-21T02:28:43.286Z,13.60
2023-02-21T02:29:43.286Z,16.10
2023-02-21T02:30:43.240Z,15.70
2023-02-21T02:31:43.419Z,21.40
2023-02-21T02:32:43.253Z,25.10
2023-02-21T02:33:43.292Z,18.80
2023-02-21T02:34:43.227Z,14.90
2023-02-21T02:35:43.251Z,18.40
2023-02-21T02:36:43.215Z,17.30
2023-02-21T02:37:43.219Z,16.70
2023-02-21T02:38:43.193Z,18.50
2023-02-21T02:39:43.176Z,16.90
2023-02-21T02:40:43.178Z,21.80
2023-02-21T02:41:43.172Z,18.50
2023-02-21T02:42:43.146Z,14.60
2023-02-21T02:43:43.173Z,17.50
2023-02-21T02:44:43.120Z,18.10
2023-02-21T02:45:43.118Z,16.40
2023-02-21T02:46:43.172Z,18.90
2023-02-21T02:47:43.109Z,22.40
2023-02-21T02:48:43.109Z,18.30
2023-02-21T02:49:43.099Z,19.20
2023-02-21T02:50:43.058Z,18.60
2023-02-21T02:51:43.084Z,24.80
2023-02-21T02:52:43.054Z,17.80
2023-02-21T02:53:43.051Z,20.40
2023-02-21T02:54:43.041Z,19.20
2023-02-21T02:55:43.014Z,18.00
2023-02-21T02:56:42.992Z,21.60
2023-02-21T02:57:42.998Z,16.40
2023-02-21T02:58:42.975Z,17.10
2023-02-21T02:59:43.001Z,16.20
2023-02-21T03:00:42.964Z,26.00
2023-02-21T03:01:43.043Z,15.20
2023-02-21T03:02:42.953Z,18.80
2023-02-21T03:03:43.017Z,17.90
2023-02-21T03:04:42.872Z,16.30
2023-02-21T03:05:42.921Z,13.90
2023-02-21T03:06:42.908Z,15.60
2023-02-21T03:07:42.967Z,20.40
2023-02-21T03:08:42.881Z,19.70
2023-02-21T03:09:42.883Z,16.20
2023-02-21T03:10:42.892Z,19.90
2023-02-21T03:11:42.909Z,13.60
2023-02-21T03:12:42.984Z,16.20
2023-02-21T03:13:43.773Z,15.10
2023-02-21T03:14:42.818Z,15.80
2023-02-21T03:15:42.924Z,23.40
2023-02-21T03:16:42.837Z,23.10
2023-02-21T03:17:42.880Z,14.10
2023-02-21T03:18:42.790Z,18.00
2023-02-21T03:19:43.705Z,19.50
2023-02-21T03:20:42.759Z,19.80
2023-02-21T03:21:42.744Z,19.50
2023-02-21T03:22:49.286Z,18.60
2023-02-21T03:23:42.729Z,18.90
2023-02-21T03:24:42.724Z,15.10
2023-02-21T03:25:42.700Z,19.00
2023-02-21T03:26:42.719Z,24.10
2023-02-21T03:27:42.682Z,17.60
2023-02-21T03:28:42.677Z,15.60
2023-02-21T03:29:42.664Z,18.20
2023-02-21T03:30:42.646Z,14.80
2023-02-21T03:31:42.836Z,18.90
2023-02-21T03:32:42.644Z,13.30
2023-02-21T03:33:42.632Z,17.40
2023-02-21T03:34:42.639Z,16.90
2023-02-21T03:35:42.595Z,26.50
2023-02-21T03:36:42.593Z,14.50
2023-02-21T03:37:42.625Z,15.90
2023-02-21T03:38:42.572Z,16.90
2023-02-21T03:39:42.549Z,18.80
2023-02-21T03:40:42.693Z,17.00
2023-02-21T03:41:42.538Z,12.80
2023-02-21T03:42:42.562Z,17.00
2023-02-21T03:43:42.504Z,22.20
2023-02-21T03:44:42.510Z,14.70
2023-02-21T03:45:42.477Z,15.70
2023-02-21T03:46:42.535Z,17.10
2023-02-21T03:47:42.492Z,21.20
2023-02-21T03:48:42.485Z,16.00
2023-02-21T03:49:42.450Z,16.70
2023-02-21T03:50:42.445Z,16.30
2023-02-21T03:51:42.422Z,20.50
2023-02-21T03:52:42.420Z,14.30
2023-02-21T03:53:42.396Z,13.30
2023-02-21T03:54:42.581Z,19.50
2023-02-21T03:55:42.381Z,16.00
2023-02-21T03:56:42.642Z,17.40
2023-02-21T03:57:42.355Z,17.20
2023-02-21T03:58:42.370Z,19.70
2023-02-21T03:59:42.332Z,13.20
2023-02-21T04:00:42.381Z,17.60
2023-02-21T04:01:42.373Z,15.10
2023-02-21T04:02:42.329Z,13.40
2023-02-21T04:03:42.304Z,22.80
2023-02-21T04:04:42.290Z,15.90
2023-02-21T04:05:42.240Z,12.80
2023-02-21T04:06:42.286Z,13.80
2023-02-21T04:07:42.260Z,24.00
2023-02-21T04:08:42.262Z,17.00
2023-02-21T04:09:42.240Z,17.30
2023-02-21T04:10:51.553Z,19.60
2023-02-21T04:11:42.232Z,21.70
2023-02-21T04:12:42.240Z,19.90
2023-02-21T04:13:42.194Z,21.60
2023-02-21T04:14:42.201Z,15.40
2023-02-21T04:15:42.174Z,21.80
2023-02-21T04:16:42.216Z,19.00
2023-02-21T04:17:42.154Z,11.50
2023-02-21T04:18:42.164Z,19.30
2023-02-21T04:19:42.121Z,20.20
2023-02-21T04:20:42.127Z,16.60
2023-02-21T04:21:42.114Z,21.40
2023-02-21T04:22:43.275Z,27.50
2023-02-21T04:23:42.086Z,21.60
2023-02-21T04:24:42.114Z,25.30
2023-02-21T04:25:42.073Z,26.90
2023-02-21T04:26:42.095Z,15.80
2023-02-21T04:27:42.053Z,20.00
2023-02-21T04:28:42.044Z,34.50
2023-02-21T04:29:42.038Z,24.30
2023-02-21T04:30:42.064Z,23.80
2023-02-21T04:31:42.077Z,22.60
2023-02-21T04:32:42.094Z,24.70
2023-02-21T04:33:42.006Z,26.50
2023-02-21T04:34:41.993Z,24.90
2023-02-21T04:35:41.959Z,20.00
2023-02-21T04:36:48.496Z,25.50
2023-02-21T04:37:41.941Z,21.70
2023-02-21T04:38:41.972Z,20.30
2023-02-21T04:39:41.922Z,23.90
2023-02-21T04:40:41.918Z,26.10
2023-02-21T04:41:41.924Z,25.50
2023-02-21T04:42:41.918Z,21.40
2023-02-21T04:43:41.877Z,15.60
2023-02-21T04:44:44.736Z,26.40
2023-02-21T04:45:41.926Z,25.40
2023-02-21T04:46:41.840Z,24.50
2023-02-21T04:47:41.832Z,23.50
2023-02-21T04:48:41.839Z,24.50
2023-02-21T04:49:41.871Z,20.90
2023-02-21T04:50:41.819Z,23.20
2023-02-21T04:51:41.796Z,24.10
2023-02-21T04:52:41.787Z,26.50
2023-02-21T04:53:41.796Z,16.80
2023-02-21T04:54:41.778Z,18.90
2023-02-21T04:55:41.751Z,18.50
2023-02-21T04:56:41.791Z,23.50
2023-02-21T04:57:41.723Z,18.80
2023-02-21T04:58:46.012Z,22.70
2023-02-21T04:59:41.754Z,22.00
2023-02-21T05:00:41.739Z,21.60
2023-02-21T05:01:41.710Z,24.80
2023-02-21T05:02:41.750Z,21.40
2023-02-21T05:03:41.696Z,25.80
2023-02-21T05:04:41.692Z,25.90
2023-02-21T05:05:41.677Z,21.80
2023-02-21T05:06:41.656Z,13.80
2023-02-21T05:07:41.623Z,20.50
2023-02-21T05:08:41.635Z,20.50
2023-02-21T05:09:41.640Z,21.90
2023-02-21T05:10:45.676Z,18.90
2023-02-21T05:11:41.652Z,20.00
2023-02-21T05:12:41.619Z,24.10
2023-02-21T05:13:41.572Z,24.40
2023-02-21T05:14:41.593Z,21.70
2023-02-21T05:15:41.654Z,19.80
2023-02-21T05:16:41.653Z,18.50
2023-02-21T05:17:41.520Z,18.90
2023-02-21T05:18:41.521Z,18.00
2023-02-21T05:19:41.547Z,22.30
2023-02-21T05:20:41.499Z,23.10
2023-02-21T05:21:41.487Z,19.20
2023-02-21T05:22:41.472Z,20.00
2023-02-21T05:23:41.456Z,18.50
2023-02-21T05:24:41.469Z,22.80
2023-02-21T05:25:41.451Z,22.30
2023-02-21T05:26:41.429Z,22.10
2023-02-21T05:27:41.424Z,26.30
2023-02-21T05:28:41.408Z,18.90
2023-02-21T05:29:41.398Z,20.00
2023-02-21T05:30:41.556Z,18.60
2023-02-21T05:31:41.418Z,19.10
2023-02-21T05:32:41.460Z,22.10
2023-02-21T05:33:41.345Z,27.40
2023-02-21T05:34:41.461Z,22.90
2023-02-21T05:35:41.334Z,19.40
2023-02-21T05:36:41.347Z,15.50
2023-02-21T05:37:41.455Z,15.00
2023-02-21T05:38:41.306Z,20.30
2023-02-21T05:39:41.305Z,21.00
2023-02-21T05:40:41.322Z,19.70
2023-02-21T05:41:41.274Z,16.80
2023-02-21T05:42:41.304Z,19.40
2023-02-21T05:43:41.260Z,19.60
2023-02-21T05:44:41.243Z,18.70
2023-02-21T05:45:41.284Z,14.30
2023-02-21T05:46:41.259Z,17.80
2023-02-21T05:47:41.252Z,21.70
2023-02-21T05:48:41.242Z,17.30
2023-02-21T05:49:41.187Z,17.50
2023-02-21T05:50:41.223Z,18.80
2023-02-21T05:51:41.305Z,15.30
2023-02-21T05:52:41.192Z,14.90
2023-02-21T05:55:04.833Z,15.80
2023-02-21T05:56:05.780Z,15.70
2023-02-21T05:57:05.763Z,17.00
2023-02-21T05:58:05.759Z,13.50
2023-02-21T05:59:05.752Z,14.40
2023-02-21T06:00:05.747Z,19.50
2023-02-21T06:01:05.721Z,12.20
2023-02-21T06:02:05.728Z,17.40
2023-02-21T06:03:05.852Z,15.70
2023-02-21T06:04:05.699Z,16.00
2023-02-21T06:05:05.684Z,14.80
2023-02-21T06:06:05.687Z,14.20
2023-02-21T06:07:05.645Z,10.40
2023-02-21T06:08:05.647Z,14.50
2023-02-21T06:09:05.673Z,13.60
2023-02-21T06:10:05.666Z,16.60
2023-02-21T06:11:05.689Z,16.70
2023-02-21T06:12:05.612Z,12.50
2023-02-21T06:13:05.532Z,12.60
2023-02-21T06:14:05.580Z,14.50
2023-02-21T06:15:05.569Z,19.50
2023-02-21T06:16:05.526Z,18.60
2023-02-21T06:17:05.517Z,9.60
2023-02-21T06:18:05.469Z,12.30
2023-02-21T06:19:05.521Z,19.00
2023-02-21T06:20:05.504Z,18.60
2023-02-21T06:21:05.456Z,14.80
2023-02-21T06:22:05.437Z,15.70
2023-02-21T06:23:05.440Z,19.70
2023-02-21T06:24:05.404Z,10.90
2023-02-21T06:25:05.410Z,15.20
2023-02-21T06:26:05.383Z,11.70
2023-02-21T06:27:05.397Z,13.40
2023-02-21T06:28:05.360Z,12.40
2023-02-21T06:29:05.366Z,15.30
2023-02-21T06:30:05.416Z,12.60
2023-02-21T06:31:05.434Z,12.20
2023-02-21T06:32:05.413Z,15.80
2023-02-21T06:33:05.326Z,13.90
2023-02-21T06:34:05.316Z,13.70
2023-02-21T06:35:05.346Z,20.50
2023-02-21T06:36:05.281Z,13.30
2023-02-21T06:37:05.292Z,17.10
2023-02-21T06:38:05.283Z,13.90
2023-02-21T06:39:05.292Z,17.20
2023-02-21T06:40:05.244Z,15.10
2023-02-21T06:41:05.239Z,12.80
2023-02-21T06:42:05.220Z,15.00
2023-02-21T06:43:05.236Z,16.00
2023-02-21T06:44:05.219Z,17.70
2023-02-21T06:45:05.199Z,14.60
2023-02-21T06:46:05.227Z,20.20
2023-02-21T06:47:05.183Z,13.40
2023-02-21T06:48:05.171Z,17.90
2023-02-21T06:49:05.162Z,16.70
2023-02-21T06:50:05.146Z,9.00
2023-02-21T06:51:05.142Z,24.20
2023-02-21T06:52:05.133Z,17.60
2023-02-21T06:53:05.118Z,16.70
2023-02-21T06:54:05.098Z,13.50
2023-02-21T06:55:05.104Z,14.30
2023-02-21T06:56:05.090Z,15.30
2023-02-21T06:57:05.081Z,14.50
2023-02-21T06:58:05.083Z,17.10
2023-02-21T06:59:05.054Z,13.20
2023-02-21T07:00:05.047Z,18.00
2023-02-21T07:01:05.041Z,17.30
2023-02-21T07:02:05.052Z,17.50
2023-02-21T07:03:05.024Z,14.50
2023-02-21T07:04:05.002Z,19.30
2023-02-21T07:05:04.995Z,18.50
2023-02-21T07:06:04.997Z,18.40
2023-02-21T07:07:04.976Z,16.00
2023-02-21T07:08:04.973Z,19.10
2023-02-21T07:09:04.949Z,18.30
2023-02-21T07:10:04.936Z,21.40
2023-02-21T07:11:04.931Z,22.40
2023-02-21T07:12:04.909Z,18.60
2023-02-21T07:13:04.937Z,17.80
2023-02-21T07:14:04.907Z,18.60
2023-02-21T07:15:04.886Z,19.20
2023-02-21T07:16:05.040Z,18.50
2023-02-21T07:17:04.881Z,13.90
2023-02-21T07:18:04.857Z,16.60
2023-02-21T07:19:04.878Z,17.20
2023-02-21T07:20:04.836Z,17.80
2023-02-21T07:21:04.823Z,17.60
2023-02-21T07:22:04.820Z,19.90
2023-02-21T07:23:04.800Z,18.80
2023-02-21T07:24:04.851Z,17.40
2023-02-21T07:25:04.812Z,20.50
2023-02-21T07:26:04.755Z,22.10
2023-02-21T07:27:04.805Z,24.20
2023-02-21T07:28:04.741Z,19.60
2023-02-21T07:29:04.783Z,20.30
2023-02-21T07:30:04.801Z,22.20
2023-02-21T07:31:04.743Z,14.60
2023-02-21T07:32:04.745Z,21.40
2023-02-21T07:33:04.700Z,16.50
2023-02-21T07:34:04.699Z,26.80
2023-02-21T07:35:04.682Z,15.50
2023-02-21T07:36:04.651Z,20.00
2023-02-21T07:37:04.676Z,16.80
2023-02-21T07:38:04.643Z,18.70
2023-02-21T07:39:04.622Z,16.40
2023-02-21T07:40:04.639Z,19.20
2023-02-21T07:41:04.602Z,17.30
2023-02-21T07:42:04.603Z,20.30
2023-02-21T07:43:04.603Z,19.50
2023-02-21T07:44:04.592Z,21.00
2023-02-21T07:45:04.577Z,23.60
2023-02-21T07:46:04.655Z,19.70
2023-02-21T07:47:04.552Z,20.40
2023-02-21T07:48:04.562Z,16.90
2023-02-21T07:49:04.552Z,17.20
2023-02-21T07:50:04.526Z,16.80
2023-02-21T07:51:04.502Z,17.30
2023-02-21T07:52:04.500Z,18.50
2023-02-21T07:53:04.496Z,16.30
2023-02-21T07:54:04.478Z,18.50
2023-02-21T07:55:04.453Z,17.70
2023-02-21T07:56:04.458Z,17.10
2023-02-21T07:57:04.464Z,22.30
2023-02-21T07:58:04.441Z,17.50
2023-02-21T07:59:04.426Z,14.40
2023-02-21T08:00:04.414Z,23.90
2023-02-21T08:01:04.406Z,20.50
2023-02-21T08:02:04.439Z,15.70
2023-02-21T08:03:04.363Z,17.80
2023-02-21T08:04:04.722Z,18.40
2023-02-21T08:05:04.377Z,12.80
2023-02-21T08:06:04.347Z,16.70
2023-02-21T08:07:04.348Z,20.20
2023-02-21T08:08:04.338Z,18.20
2023-02-21T08:09:04.322Z,16.80
2023-02-21T08:10:04.322Z,19.30
2023-02-21T08:11:04.287Z,17.40
2023-02-21T08:12:04.299Z,17.80
2023-02-21T08:13:04.299Z,20.10
2023-02-21T08:14:04.262Z,21.30
2023-02-21T08:15:04.258Z,16.40
2023-02-21T08:16:04.283Z,19.30
2023-02-21T08:17:04.224Z,13.30
2023-02-21T08:18:04.238Z,19.90
2023-02-21T08:19:04.199Z,19.40
2023-02-21T08:20:04.201Z,12.70
2023-02-21T08:21:04.197Z,11.80
2023-02-21T08:22:04.187Z,21.50
2023-02-21T08:23:04.165Z,17.40
2023-02-21T08:24:04.171Z,19.20
2023-02-21T08:25:04.165Z,16.00
2023-02-21T08:26:04.141Z,15.30
2023-02-21T08:27:04.123Z,19.30
2023-02-21T08:28:04.140Z,19.00
2023-02-21T08:29:04.108Z,17.50
2023-02-21T08:30:04.183Z,22.60
2023-02-21T08:31:04.154Z,24.70
2023-02-21T08:32:04.099Z,16.60
2023-02-21T08:33:04.050Z,18.50
2023-02-21T08:34:04.077Z,20.80
2023-02-21T08:35:04.046Z,15.20
2023-02-21T08:36:04.042Z,15.80
2023-02-21T08:37:04.021Z,18.80
2023-02-21T08:38:04.052Z,15.30
2023-02-21T08:39:04.013Z,16.00
2023-02-21T08:40:04.030Z,17.00
2023-02-21T08:41:03.977Z,19.80
2023-02-21T08:42:03.979Z,12.90
2023-02-21T08:43:03.962Z,13.30
2023-02-21T08:44:03.957Z,15.80
2023-02-21T08:45:03.946Z,23.50
2023-02-21T08:46:03.945Z,14.20
2023-02-21T08:47:03.913Z,19.60
2023-02-21T08:48:03.911Z,23.10
2023-02-21T08:49:03.921Z,20.90
2023-02-21T08:50:03.877Z,22.10
2023-02-21T08:51:03.897Z,17.10
2023-02-21T08:52:03.884Z,19.70
2023-02-21T08:53:03.867Z,15.40
2023-02-21T08:54:03.849Z,15.60
2023-02-21T08:55:03.837Z,16.40
2023-02-21T08:56:03.837Z,17.50
2023-02-21T08:57:03.829Z,19.10
2023-02-21T08:58:03.803Z,15.70
2023-02-21T08:59:03.854Z,14.40
2023-02-21T09:00:03.790Z,17.10
2023-02-21T09:01:03.856Z,14.80
2023-02-21T09:02:03.772Z,20.40
2023-02-21T09:03:03.748Z,19.10
2023-02-21T09:04:03.778Z,17.80
2023-02-21T09:05:03.727Z,17.80
2023-02-21T09:06:03.729Z,16.10
2023-02-21T09:07:03.702Z,17.10
2023-02-21T09:08:03.713Z,21.50
2023-02-21T09:09:03.700Z,15.60
2023-02-21T09:10:03.690Z,16.30
2023-02-21T09:11:03.738Z,17.90
2023-02-21T09:12:03.663Z,19.20
2023-02-21T09:13:03.702Z,15.90
2023-02-21T09:14:03.629Z,17.20
2023-02-21T09:15:03.619Z,18.00
2023-02-21T09:16:03.734Z,10.50
2023-02-21T09:17:03.627Z,20.80
2023-02-21T09:18:03.604Z,15.40
2023-02-21T09:19:03.587Z,24.90
2023-02-21T09:20:03.582Z,15.30
2023-02-21T09:21:03.574Z,16.10
2023-02-21T09:22:03.563Z,11.90
2023-02-21T09:23:03.545Z,16.60
2023-02-21T09:24:03.531Z,15.20
2023-02-21T09:25:03.529Z,16.00
2023-02-21T09:26:03.536Z,20.60
2023-02-21T09:27:03.512Z,12.80
2023-02-21T09:28:03.503Z,14.30
2023-02-21T09:29:03.476Z,15.90
2023-02-21T09:30:03.610Z,21.60
2023-02-21T09:31:03.503Z,15.10
2023-02-21T09:32:03.490Z,15.60
2023-02-21T09:33:03.430Z,17.20
2023-02-21T09:34:03.440Z,16.70
2023-02-21T09:35:03.427Z,14.00
2023-02-21T09:36:03.426Z,15.10
2023-02-21T09:37:03.396Z,14.40
2023-02-21T09:38:03.391Z,14.40
2023-02-21T09:39:03.368Z,11.20
2023-02-21T09:40:03.370Z,12.40
2023-02-21T09:41:03.352Z,16.10
2023-02-21T09:42:03.356Z,12.50
2023-02-21T09:43:03.315Z,14.50
2023-02-21T09:44:03.360Z,14.80
2023-02-21T09:45:04.773Z,15.30
2023-02-21T09:46:03.322Z,19.60
2023-02-21T09:47:03.314Z,19.30
2023-02-21T09:48:03.290Z,15.60
2023-02-21T09:49:03.263Z,15.20
2023-02-21T09:50:03.261Z,12.30
2023-02-21T09:51:03.258Z,16.40
2023-02-21T09:52:03.243Z,14.50
2023-02-21T09:53:03.217Z,12.70
2023-02-21T09:54:03.212Z,13.40
2023-02-21T09:55:03.188Z,17.00
2023-02-21T09:56:03.220Z,14.40
2023-02-21T09:57:03.215Z,15.70
2023-02-21T09:58:03.182Z,12.90
2023-02-21T09:59:03.252Z,13.80
2023-02-21T10:00:03.158Z,13.20
2023-02-21T10:01:03.145Z,13.60
2023-02-21T10:02:03.137Z,18.90
2023-02-21T10:03:03.116Z,12.60
2023-02-21T10:04:03.106Z,10.30
2023-02-21T10:05:03.192Z,14.90
2023-02-21T10:06:05.359Z,13.20
2023-02-21T10:07:03.067Z,13.10
2023-02-21T10:08:03.085Z,10.30
2023-02-21T10:09:03.057Z,14.10
2023-02-21T10:10:03.073Z,12.40
2023-02-21T10:11:03.020Z,19.90
2023-02-21T10:12:03.034Z,13.50
2023-02-21T10:13:03.026Z,20.20
2023-02-21T10:14:03.023Z,14.40
2023-02-21T10:15:02.992Z,15.40
2023-02-21T10:16:02.994Z,10.80
2023-02-21T10:17:02.965Z,12.50
2023-02-21T10:18:03.028Z,15.20
2023-02-21T10:19:02.942Z,11.10
2023-02-21T10:20:02.968Z,16.50
2023-02-21T10:21:02.923Z,11.60
2023-02-21T10:22:02.948Z,12.90
2023-02-21T10:23:02.923Z,10.90
2023-02-21T10:24:02.928Z,11.50
2023-02-21T10:25:02.915Z,15.80
2023-02-21T10:26:02.904Z,13.60
2023-02-21T10:27:02.854Z,8.60
2023-02-21T10:28:02.862Z,16.20
2023-02-21T10:29:02.852Z,11.70
2023-02-21T10:30:02.842Z,10.50
2023-02-21T10:31:02.985Z,22.50
2023-02-21T10:32:02.876Z,14.50
2023-02-21T10:33:02.798Z,17.80
2023-02-21T10:34:02.823Z,11.70
2023-02-21T10:35:02.780Z,14.70
2023-02-21T10:36:02.799Z,11.20
2023-02-21T10:37:02.897Z,18.70
2023-02-21T10:38:02.797Z,12.40
2023-02-21T10:39:02.738Z,15.20
2023-02-21T10:40:02.763Z,9.30
2023-02-21T10:41:02.729Z,13.90
2023-02-21T10:42:02.707Z,18.00
2023-02-21T10:43:02.687Z,14.00
2023-02-21T10:44:02.699Z,13.20
2023-02-21T10:45:02.673Z,15.00
2023-02-21T10:46:02.750Z,12.60
2023-02-21T10:47:02.669Z,20.20
2023-02-21T10:48:02.660Z,13.70
2023-02-21T10:49:02.652Z,12.40
2023-02-21T10:50:02.640Z,9.00
2023-02-21T10:51:02.607Z,14.80
2023-02-21T10:52:02.605Z,18.90
2023-02-21T10:53:02.640Z,15.90
2023-02-21T10:54:02.600Z,11.60
2023-02-21T10:55:02.560Z,9.90
2023-02-21T10:56:02.576Z,13.90
2023-02-21T10:57:02.555Z,12.40
2023-02-21T10:58:02.549Z,14.40
2023-02-21T10:59:02.534Z,11.50
2023-02-21T11:00:02.556Z,11.70
2023-02-21T11:01:02.566Z,12.90
2023-02-21T11:02:02.516Z,10.00
2023-02-21T11:03:02.502Z,13.70
2023-02-21T11:04:02.488Z,9.00
2023-02-21T11:05:02.493Z,6.90
2023-02-21T11:06:02.498Z,11.90
2023-02-21T11:07:02.448Z,10.60
2023-02-21T11:08:02.442Z,7.40
2023-02-21T11:09:02.444Z,10.40
2023-02-21T11:10:02.420Z,7.80
2023-02-21T11:11:02.401Z,11.60
2023-02-21T11:12:02.402Z,8.90
2023-02-21T11:13:02.407Z,9.00
2023-02-21T11:14:02.369Z,10.30
2023-02-21T11:15:02.381Z,9.20
2023-02-21T11:16:02.362Z,9.60
2023-02-21T11:17:02.351Z,8.90
2023-02-21T11:18:02.337Z,14.00
2023-02-21T11:19:02.312Z,9.20
2023-02-21T11:20:02.354Z,6.90
2023-02-21T11:21:02.326Z,10.90
2023-02-21T11:22:02.311Z,7.40
2023-02-21T11:23:02.296Z,7.90
2023-02-21T11:24:02.276Z,8.10
2023-02-21T11:25:02.295Z,9.30
2023-02-21T11:26:02.255Z,9.40
2023-02-21T11:27:02.232Z,7.50
2023-02-21T11:28:02.261Z,8.60
2023-02-21T11:29:02.211Z,7.20
2023-02-21T11:30:02.209Z,7.20
2023-02-21T11:31:02.239Z,9.60
2023-02-21T11:32:02.232Z,7.90
2023-02-21T11:33:02.183Z,5.80
2023-02-21T11:34:02.175Z,9.10
2023-02-21T11:35:02.198Z,10.20
2023-02-21T11:36:02.154Z,6.70
2023-02-21T11:37:02.142Z,4.50
2023-02-21T11:38:02.156Z,8.60
2023-02-21T11:39:02.119Z,6.20
2023-02-21T11:40:02.148Z,6.40
2023-02-21T11:41:02.097Z,7.70
2023-02-21T11:42:02.161Z,9.40
2023-02-21T11:43:02.087Z,8.20
2023-02-21T11:44:02.091Z,7.40
2023-02-21T11:45:02.071Z,7.10
2023-02-21T11:46:02.123Z,4.30
2023-02-21T11:47:02.028Z,8.60
2023-02-21T11:48:02.059Z,6.40
2023-02-21T11:49:02.005Z,8.10
2023-02-21T11:50:02.042Z,5.70
2023-02-21T11:51:02.029Z,11.40
2023-02-21T11:52:02.025Z,8.70
2023-02-21T11:53:01.975Z,9.20
2023-02-21T11:54:02.012Z,7.40
2023-02-21T11:55:01.955Z,9.50
2023-02-21T11:56:01.969Z,4.60
2023-02-21T11:57:01.931Z,7.10
2023-02-21T11:58:01.925Z,8.30
2023-02-21T11:59:01.939Z,5.10
2023-02-21T12:00:01.899Z,6.30
2023-02-21T12:01:02.028Z,6.60
2023-02-21T12:02:01.896Z,6.90
2023-02-21T12:03:01.958Z,5.60
2023-02-21T12:04:01.857Z,8.60
2023-02-21T12:05:01.880Z,7.80
2023-02-21T12:06:01.857Z,5.80
2023-02-21T12:07:01.884Z,10.90
2023-02-21T12:08:01.908Z,7.20
2023-02-21T12:09:01.800Z,4.60
2023-02-21T12:10:01.809Z,8.10
2023-02-21T12:11:01.822Z,6.10
2023-02-21T12:12:02.544Z,8.10
2023-02-21T12:13:01.794Z,8.00
2023-02-21T12:14:01.753Z,6.20
2023-02-21T12:15:01.757Z,8.10
2023-02-21T12:16:01.785Z,8.80
2023-02-21T12:17:01.741Z,12.80
2023-02-21T12:18:01.746Z,4.30
2023-02-21T12:19:01.729Z,3.40
2023-02-21T12:20:01.709Z,5.70
2023-02-21T12:21:01.674Z,6.60
2023-02-21T12:22:01.676Z,5.90
2023-02-21T12:23:01.677Z,7.20
2023-02-21T12:24:01.649Z,7.00
2023-02-21T12:25:01.636Z,7.70
2023-02-21T12:26:01.656Z,7.60
2023-02-21T12:27:01.640Z,6.40
2023-02-21T12:28:01.638Z,8.00
2023-02-21T12:29:01.644Z,5.60
2023-02-21T12:30:01.582Z,7.20
2023-02-21T12:31:01.601Z,4.60
2023-02-21T12:32:01.702Z,7.70
2023-02-21T12:33:01.539Z,5.40
2023-02-21T12:34:01.588Z,7.30
2023-02-21T12:35:01.637Z,4.40
2023-02-21T12:36:01.598Z,4.90
2023-02-21T12:37:01.553Z,8.50
2023-02-21T12:38:01.524Z,5.00
2023-02-21T12:39:01.517Z,5.50
2023-02-21T12:40:01.519Z,6.00
2023-02-21T12:41:01.542Z,5.60
2023-02-21T12:42:01.462Z,8.10
2023-02-21T12:43:01.474Z,7.40
2023-02-21T12:44:01.439Z,6.10
2023-02-21T12:45:01.468Z,6.20
2023-02-21T12:46:01.453Z,5.70
2023-02-21T12:47:01.419Z,4.90
2023-02-21T12:48:01.386Z,6.00
2023-02-21T12:49:01.407Z,4.00
2023-02-21T12:50:01.383Z,6.90
2023-02-21T12:51:01.380Z,5.90
2023-02-21T12:52:01.368Z,7.30
2023-02-21T12:53:01.356Z,8.20
2023-02-21T12:54:01.343Z,6.90
2023-02-21T12:55:01.342Z,6.80
2023-02-21T12:56:01.347Z,5.60
2023-02-21T12:57:01.312Z,6.80
2023-02-21T12:58:01.334Z,5.50